Time,TemperatureF,DewpointF,PressureIn,WindDirection,WindDirectionDegrees,WindSpeedMPH,WindSpeedGustMPH,Humidity,HourlyPrecipIn,Conditions,Clouds,dailyrainin,SoftwareType,DateUTC
2013-06-28 00:02:00,73.0,68.9,29.91,NW,309,1.2,1.2,87,0.00,CLR,CLR,0.00,WeatherDisplay:10.37,2013-06-28 05:02:00,
2013-06-28 00:07:00,73.0,69.2,29.91,WNW,286,2.3,2.3,88,0.00,CLR,CLR,0.00,WeatherDisplay:10.37,2013-06-28 05:07:00,
2013-06-28 00:12:00,73.0,69.2,29.91,West,264,2.3,2.3,88,0.00,CLR,CLR,0.00,WeatherDisplay:10.37,2013-06-28 05:12:00,
2013-06-28 00:17:00,73.1,69.3,29.91,West,264,0.0,0.0,88,0.00,CLR,CLR,0.00,WeatherDisplay:10.37,2013-06-28 05:17:00,
2013-06-28 00:22:00,73.1,69.3,29.91,West,264,0.0,0.0,88,0.00,CLR,CLR,0.00,WeatherDisplay:10.37,2013-06-28 05:22:00,
2013-06-28 00:27:00,73.2,69.4,29.90,West,264,0.0,0.0,88,0.00,CLR,CLR,0.00,WeatherDisplay:10.37,2013-06-28 05:27:00,
2013-06-28 00:32:00,73.3,69.2,29.90,West,264,0.0,0.0,87,0.00,CLR,CLR,0.00,WeatherDisplay:10.37,2013-06-28 05:32:00,
2013-06-28 00:37:00,73.2,69.1,29.90,West,264,0.0,0.0,87,0.00,CLR,CLR,0.00,WeatherDisplay:10.37,2013-06-28 05:37:00,
2013-06-28 00:42:00,73.1,69.3,29.90,West,264,0.0,0.0,88,0.00,CLR,CLR,0.00,WeatherDisplay:10.37,2013-06-28 05:42:00,
2013-06-28 00:47:00,72.8,69.0,29.90,West,264,0.0,0.0,88,0.00,CLR,CLR,0.00,WeatherDisplay:10.37,2013-06-28 05:47:00,
2013-06-28 00:52:00,72.5,69.1,29.90,West,264,0.0,0.0,89,0.00,CLR,CLR,0.00,WeatherDisplay:10.37,2013-06-28 05:52:00,
2013-06-28 00:57:00,72.3,68.9,29.90,West,264,0.0,0.0,89,0.00,CLR,CLR,0.00,WeatherDisplay:10.37,2013-06-28 05:57:00,
2013-06-28 01:02:00,72.2,68.8,29.90,West,264,0.0,0.0,89,0.00,CLR,CLR,0.00,WeatherDisplay:10.37,2013-06-28 06:02:00,
2013-06-28 01:07:00,72.1,68.3,29.89,West,264,0.0,0.0,88,0.00,CLR,CLR,0.00,WeatherDisplay:10.37,2013-06-28 06:07:00,
2013-06-28 01:12:00,72.2,68.4,29.90,West,264,1.0,1.0,88,0.00,CLR,CLR,0.00,WeatherDisplay:10.37,2013-06-28 06:12:00,
2013-06-28 01:17:00,72.3,68.2,29.90,West,264,1.0,1.0,87,0.00,CLR,CLR,0.00,WeatherDisplay:10.37,2013-06-28 06:17:00,
2013-06-28 01:22:00,72.6,67.8,29.90,West,264,0.0,0.0,85,0.00,CLR,CLR,0.00,WeatherDisplay:10.37,2013-06-28 06:22:00,
2013-06-28 01:27:00,72.8,67.7,29.90,West,264,0.0,0.0,84,0.00,CLR,CLR,0.00,WeatherDisplay:10.37,2013-06-28 06:27:00,
2013-06-28 01:32:00,72.9,67.8,29.90,West,264,0.0,0.0,84,0.00,CLR,CLR,0.00,WeatherDisplay:10.37,2013-06-28 06:32:00,
2013-06-28 01:37:00,72.9,67.8,29.89,West,264,0.0,0.0,84,0.00,CLR,CLR,0.00,WeatherDisplay:10.37,2013-06-28 06:37:00,
2013-06-28 01:42:00,73.0,67.9,29.89,West,264,0.0,0.0,84,0.00,CLR,CLR,0.00,WeatherDisplay:10.37,2013-06-28 06:42:00,
2013-06-28 01:47:00,73.0,67.5,29.89,West,264,0.0,0.0,83,0.00,CLR,CLR,0.00,WeatherDisplay:10.37,2013-06-28 06:47:00,
2013-06-28 01:52:00,73.0,67.5,29.89,West,264,0.0,0.0,83,0.00,CLR,CLR,0.00,WeatherDisplay:10.37,2013-06-28 06:52:00,
2013-06-28 01:57:00,73.0,67.2,29.89,West,264,0.0,0.0,82,0.00,CLR,CLR,0.00,WeatherDisplay:10.37,2013-06-28 06:57:00,
2013-06-28 02:02:00,73.0,67.2,29.89,West,264,0.0,0.0,82,0.00,CLR,CLR,0.00,WeatherDisplay:10.37,2013-06-28 07:02:00,
2013-06-28 02:07:00,73.0,67.2,29.89,West,264,0.0,0.0,82,0.00,CLR,CLR,0.00,WeatherDisplay:10.37,2013-06-28 07:07:00,
2013-06-28 02:12:00,72.7,66.9,29.89,West,264,0.0,0.0,82,0.00,CLR,CLR,0.00,WeatherDisplay:10.37,2013-06-28 07:12:00,
2013-06-28 02:17:00,72.3,67.2,29.90,West,264,0.0,0.0,84,0.00,CLR,CLR,0.00,WeatherDisplay:10.37,2013-06-28 07:17:00,
2013-06-28 02:22:00,71.9,67.1,29.89,West,264,0.0,0.0,85,0.00,CLR,CLR,0.00,WeatherDisplay:10.37,2013-06-28 07:22:00,
2013-06-28 02:27:00,71.4,67.3,29.90,West,264,0.0,0.0,87,0.00,CLR,CLR,0.00,WeatherDisplay:10.37,2013-06-28 07:27:00,
2013-06-28 02:32:00,71.0,66.9,29.89,West,264,0.0,0.0,87,0.00,CLR,CLR,0.00,WeatherDisplay:10.37,2013-06-28 07:32:00,
2013-06-28 02:37:00,70.7,66.6,29.89,West,264,0.0,0.0,87,0.00,CLR,CLR,0.00,WeatherDisplay:10.37,2013-06-28 07:37:00,
2013-06-28 02:42:00,70.5,66.8,29.89,West,264,0.0,0.0,88,0.00,CLR,CLR,0.00,WeatherDisplay:10.37,2013-06-28 07:42:00,
2013-06-28 02:47:00,70.4,66.7,29.89,West,264,0.0,0.0,88,0.00,CLR,CLR,0.00,WeatherDisplay:10.37,2013-06-28 07:47:00,
2013-06-28 02:52:00,70.3,66.6,29.89,West,264,0.0,0.0,88,0.00,CLR,CLR,0.00,WeatherDisplay:10.37,2013-06-28 07:52:00,
2013-06-28 02:57:00,70.1,66.4,29.89,West,264,0.0,0.0,88,0.00,CLR,CLR,0.00,WeatherDisplay:10.37,2013-06-28 07:57:00,
2013-06-28 03:02:00,69.9,66.2,29.89,West,264,0.0,0.0,88,0.00,CLR,CLR,0.00,WeatherDisplay:10.37,2013-06-28 08:02:00,
2013-06-28 03:07:00,69.8,66.4,29.89,West,264,0.0,0.0,89,0.00,CLR,CLR,0.00,WeatherDisplay:10.37,2013-06-28 08:07:00,
2013-06-28 03:12:00,69.6,66.2,29.89,West,264,0.0,0.0,89,0.00,CLR,CLR,0.00,WeatherDisplay:10.37,2013-06-28 08:12:00,
2013-06-28 03:17:00,69.4,66.3,29.89,West,264,0.0,0.0,90,0.00,CLR,CLR,0.00,WeatherDisplay:10.37,2013-06-28 08:17:00,
2013-06-28 03:22:00,69.3,66.2,29.88,West,264,1.2,1.2,90,0.00,CLR,CLR,0.00,WeatherDisplay:10.37,2013-06-28 08:22:00,
2013-06-28 03:27:00,69.2,66.1,29.88,West,264,0.0,0.0,90,0.00,CLR,CLR,0.00,WeatherDisplay:10.37,2013-06-28 08:27:00,
2013-06-28 03:32:00,69.3,66.2,29.88,West,264,0.0,0.0,90,0.00,CLR,CLR,0.00,WeatherDisplay:10.37,2013-06-28 08:32:00,
2013-06-28 03:37:00,69.3,65.9,29.88,West,264,0.0,0.0,89,0.00,CLR,CLR,0.00,WeatherDisplay:10.37,2013-06-28 08:37:00,
2013-06-28 03:42:00,69.2,65.8,29.88,West,264,0.0,0.0,89,0.00,CLR,CLR,0.00,WeatherDisplay:10.37,2013-06-28 08:42:00,
2013-06-28 03:47:00,69.1,66.0,29.88,West,264,0.0,0.0,90,0.00,CLR,CLR,0.00,WeatherDisplay:10.37,2013-06-28 08:47:00,
2013-06-28 03:52:00,68.9,65.8,29.88,West,264,0.0,0.0,90,0.00,CLR,CLR,0.00,WeatherDisplay:10.37,2013-06-28 08:52:00,
2013-06-28 03:57:00,68.9,65.8,29.88,West,264,0.0,0.0,90,0.00,CLR,CLR,0.00,WeatherDisplay:10.37,2013-06-28 08:57:00,
2013-06-28 04:02:00,68.7,66.0,29.87,West,264,0.0,0.0,91,0.00,CLR,CLR,0.00,WeatherDisplay:10.37,2013-06-28 09:02:00,
2013-06-28 04:07:00,68.6,65.9,29.87,West,264,0.0,0.0,91,0.00,CLR,CLR,0.00,WeatherDisplay:10.37,2013-06-28 09:07:00,
2013-06-28 04:12:00,68.5,66.1,29.87,West,264,0.0,0.0,92,0.00,CLR,CLR,0.00,WeatherDisplay:10.37,2013-06-28 09:12:00,
2013-06-28 04:17:00,68.6,66.2,29.87,West,264,0.0,0.0,92,0.00,CLR,CLR,0.00,WeatherDisplay:10.37,2013-06-28 09:17:00,
2013-06-28 04:22:00,69.0,66.9,29.87,West,267,1.2,0.0,93,0.00,CLR,CLR,0.00,WeatherDisplay:10.37,2013-06-28 09:22:00,
2013-06-28 04:27:00,69.8,67.4,29.87,WNW,299,1.2,1.2,92,0.00,CLR,CLR,0.00,WeatherDisplay:10.37,2013-06-28 09:27:00,
2013-06-28 04:32:00,70.6,67.5,29.87,WNW,298,1.2,1.2,90,0.00,CLR,CLR,0.00,WeatherDisplay:10.37,2013-06-28 09:32:00,
2013-06-28 04:37:00,71.1,67.7,29.87,WNW,290,1.2,1.2,89,0.00,CLR,CLR,0.00,WeatherDisplay:10.37,2013-06-28 09:37:00,
2013-06-28 04:42:00,71.5,67.8,29.87,WNW,302,2.3,2.3,88,0.00,CLR,CLR,0.00,WeatherDisplay:10.37,2013-06-28 09:42:00,
2013-06-28 04:47:00,71.8,67.7,29.87,WNW,293,2.3,2.3,87,0.00,CLR,CLR,0.00,WeatherDisplay:10.37,2013-06-28 09:47:00,
2013-06-28 04:52:00,72.2,67.8,29.88,WNW,286,3.5,3.5,86,0.00,CLR,CLR,0.00,WeatherDisplay:10.37,2013-06-28 09:52:00,
2013-06-28 04:57:00,72.5,67.7,29.87,West,273,2.3,2.3,85,0.00,CLR,CLR,0.00,WeatherDisplay:10.37,2013-06-28 09:57:00,
2013-06-28 05:02:00,72.8,67.7,29.87,WNW,300,2.0,2.0,84,0.00,CLR,CLR,0.00,WeatherDisplay:10.37,2013-06-28 10:02:00,
2013-06-28 05:07:00,72.9,67.8,29.88,WNW,294,1.2,1.2,84,0.00,CLR,CLR,0.00,WeatherDisplay:10.37,2013-06-28 10:07:00,
2013-06-28 05:12:00,72.9,67.4,29.88,West,277,2.3,2.3,83,0.00,CLR,CLR,0.00,WeatherDisplay:10.37,2013-06-28 10:12:00,
2013-06-28 05:17:00,72.9,67.4,29.88,WNW,287,2.3,2.3,83,0.00,CLR,CLR,0.00,WeatherDisplay:10.37,2013-06-28 10:17:00,
2013-06-28 05:22:00,72.9,67.4,29.88,WNW,284,1.2,1.2,83,0.00,CLR,CLR,0.00,WeatherDisplay:10.37,2013-06-28 10:22:00,
2013-06-28 05:27:00,72.8,67.7,29.88,West,267,1.2,1.2,84,0.00,CLR,CLR,0.00,WeatherDisplay:10.37,2013-06-28 10:27:00,
2013-06-28 05:32:00,72.7,67.6,29.89,NNW,346,1.2,1.2,84,0.00,CLR,CLR,0.00,WeatherDisplay:10.37,2013-06-28 10:32:00,
2013-06-28 05:37:00,72.7,67.6,29.90,NW,304,3.5,3.5,84,0.00,CLR,CLR,0.00,WeatherDisplay:10.37,2013-06-28 10:37:00,
2013-06-28 05:42:00,72.7,67.6,29.90,NW,320,2.3,2.3,84,0.00,CLR,CLR,0.00,WeatherDisplay:10.37,2013-06-28 10:42:00,
2013-06-28 05:47:00,72.7,67.6,29.90,NNE,16,1.2,1.2,84,0.00,CLR,CLR,0.00,WeatherDisplay:10.37,2013-06-28 10:47:00,
2013-06-28 05:52:00,72.6,67.5,29.90,NNE,27,1.2,1.2,84,0.00,CLR,CLR,0.00,WeatherDisplay:10.37,2013-06-28 10:52:00,
2013-06-28 05:57:00,72.6,67.8,29.90,NNE,26,1.2,0.0,85,0.00,CLR,CLR,0.00,WeatherDisplay:10.37,2013-06-28 10:57:00,
2013-06-28 06:02:00,72.6,67.5,29.90,NNE,24,1.2,0.0,84,0.00,CLR,CLR,0.00,WeatherDisplay:10.37,2013-06-28 11:02:00,
2013-06-28 06:07:00,72.7,67.6,29.91,North,360,1.0,0.0,84,0.00,CLR,CLR,0.00,WeatherDisplay:10.37,2013-06-28 11:07:00,
2013-06-28 06:12:00,72.8,67.7,29.91,North,360,1.2,1.2,84,0.00,CLR,CLR,0.00,WeatherDisplay:10.37,2013-06-28 11:12:00,
2013-06-28 06:17:00,72.8,67.7,29.91,North,5,1.2,1.2,84,0.00,CLR,CLR,0.00,WeatherDisplay:10.37,2013-06-28 11:17:00,
2013-06-28 06:22:00,72.8,67.7,29.91,NNE,16,1.2,1.2,84,0.00,CLR,CLR,0.00,WeatherDisplay:10.37,2013-06-28 11:22:00,
2013-06-28 06:27:00,72.8,67.7,29.91,NNE,15,1.2,1.2,84,0.00,CLR,CLR,0.00,WeatherDisplay:10.37,2013-06-28 11:27:00,
2013-06-28 06:32:00,72.8,67.7,29.91,North,360,0.0,0.0,84,0.00,CLR,CLR,0.00,WeatherDisplay:10.37,2013-06-28 11:32:00,
2013-06-28 06:37:00,72.7,67.6,29.91,North,5,1.2,1.2,84,0.00,CLR,CLR,0.00,WeatherDisplay:10.37,2013-06-28 11:37:00,
2013-06-28 06:42:00,72.7,67.6,29.92,NNW,348,1.2,1.2,84,0.00,CLR,CLR,0.00,WeatherDisplay:10.37,2013-06-28 11:42:00,
2013-06-28 06:47:00,72.6,67.5,29.91,North,355,1.2,0.0,84,0.00,CLR,CLR,0.00,WeatherDisplay:10.37,2013-06-28 11:47:00,
2013-06-28 06:52:00,72.6,67.5,29.91,NNW,343,1.2,0.0,84,0.00,CLR,CLR,0.00,WeatherDisplay:10.37,2013-06-28 11:52:00,
2013-06-28 06:57:00,72.6,67.5,29.92,NNW,340,1.2,0.0,84,0.00,CLR,CLR,0.00,WeatherDisplay:10.37,2013-06-28 11:57:00,
2013-06-28 07:02:00,72.6,67.5,29.92,NNW,346,0.0,0.0,84,0.00,CLR,CLR,0.00,WeatherDisplay:10.37,2013-06-28 12:02:00,
2013-06-28 07:07:00,72.5,67.4,29.91,North,350,1.0,0.0,84,0.00,CLR,CLR,0.00,WeatherDisplay:10.37,2013-06-28 12:07:00,
2013-06-28 07:12:00,72.5,67.7,29.91,North,9,0.0,0.0,85,0.00,CLR,CLR,0.00,WeatherDisplay:10.37,2013-06-28 12:12:00,
2013-06-28 07:17:00,72.4,67.6,29.91,NNW,327,1.2,1.2,85,0.00,CLR,CLR,0.00,WeatherDisplay:10.37,2013-06-28 12:17:00,
2013-06-28 07:22:00,72.5,67.4,29.92,NW,311,1.2,1.2,84,0.00,CLR,CLR,0.00,WeatherDisplay:10.37,2013-06-28 12:22:00,
2013-06-28 07:27:00,72.7,67.6,29.92,North,5,0.0,0.0,84,0.00,CLR,CLR,0.00,WeatherDisplay:10.37,2013-06-28 12:27:00,
2013-06-28 07:32:00,72.8,67.3,29.92,NNE,13,1.2,1.2,83,0.00,CLR,CLR,0.00,WeatherDisplay:10.37,2013-06-28 12:32:00,
2013-06-28 07:37:00,72.8,67.3,29.92,NNE,13,0.0,0.0,83,0.00,CLR,CLR,0.00,WeatherDisplay:10.37,2013-06-28 12:37:00,
2013-06-28 07:42:00,72.8,67.3,29.92,NNE,13,1.0,1.0,83,0.00,CLR,CLR,0.00,WeatherDisplay:10.37,2013-06-28 12:42:00,
2013-06-28 07:47:00,72.8,67.0,29.92,NNE,14,0.0,0.0,82,0.00,CLR,CLR,0.00,WeatherDisplay:10.37,2013-06-28 12:47:00,
2013-06-28 07:52:00,73.1,67.3,29.92,NNE,23,1.2,1.2,82,0.00,CLR,CLR,0.00,WeatherDisplay:10.37,2013-06-28 12:52:00,
2013-06-28 07:57:00,73.8,67.6,29.92,North,360,1.2,0.0,81,0.00,CLR,CLR,0.00,WeatherDisplay:10.37,2013-06-28 12:57:00,
2013-06-28 08:02:00,74.6,67.7,29.92,North,360,1.0,1.0,79,0.00,CLR,CLR,0.00,WeatherDisplay:10.37,2013-06-28 13:02:00,
2013-06-28 08:07:00,75.3,67.2,29.92,North,351,1.2,1.2,76,0.00,CLR,CLR,0.00,WeatherDisplay:10.37,2013-06-28 13:07:00,
2013-06-28 08:12:00,76.0,66.7,29.93,NNE,21,1.2,1.2,73,0.00,CLR,CLR,0.00,WeatherDisplay:10.37,2013-06-28 13:12:00,
2013-06-28 08:17:00,76.3,66.6,29.93,NNE,17,1.2,1.2,72,0.00,CLR,CLR,0.00,WeatherDisplay:10.37,2013-06-28 13:17:00,
2013-06-28 08:22:00,76.8,66.3,29.93,NNE,17,1.2,1.2,70,0.00,CLR,CLR,0.00,WeatherDisplay:10.37,2013-06-28 13:22:00,
2013-06-28 08:27:00,77.2,66.7,29.93,North,360,1.2,1.2,70,0.00,CLR,CLR,0.00,WeatherDisplay:10.37,2013-06-28 13:27:00,
2013-06-28 08:32:00,77.5,66.5,29.94,North,351,1.2,1.2,69,0.00,CLR,CLR,0.00,WeatherDisplay:10.37,2013-06-28 13:32:00,
2013-06-28 08:37:00,77.7,65.9,29.93,North,9,1.2,1.2,67,0.00,CLR,CLR,0.00,WeatherDisplay:10.37,2013-06-28 13:37:00,
2013-06-28 08:42:00,78.1,65.8,29.94,NE,34,1.2,1.2,66,0.00,CLR,CLR,0.00,WeatherDisplay:10.37,2013-06-28 13:42:00,
2013-06-28 08:47:00,78.5,65.3,29.94,NNE,18,1.2,1.2,64,0.00,CLR,CLR,0.00,WeatherDisplay:10.37,2013-06-28 13:47:00,
2013-06-28 08:52:00,78.6,64.9,29.94,North,5,2.3,2.3,63,0.00,CLR,CLR,0.00,WeatherDisplay:10.37,2013-06-28 13:52:00,
2013-06-28 08:57:00,78.6,64.5,29.94,North,10,1.2,1.2,62,0.00,CLR,CLR,0.00,WeatherDisplay:10.37,2013-06-28 13:57:00,
2013-06-28 09:02:00,78.8,64.2,29.94,NNE,17,2.3,2.3,61,0.00,CLR,CLR,0.00,WeatherDisplay:10.37,2013-06-28 14:02:00,
2013-06-28 09:07:00,79.1,63.5,29.94,North,5,3.5,3.5,59,0.00,CLR,CLR,0.00,WeatherDisplay:10.37,2013-06-28 14:07:00,
2013-06-28 09:12:00,79.2,63.6,29.94,North,11,2.3,2.3,59,0.00,CLR,CLR,0.00,WeatherDisplay:10.37,2013-06-28 14:12:00,
2013-06-28 09:17:00,79.6,64.0,29.94,NNW,329,1.2,1.2,59,0.00,CLR,CLR,0.00,WeatherDisplay:10.37,2013-06-28 14:17:00,
2013-06-28 09:22:00,79.9,63.8,29.94,NNE,17,2.0,2.0,58,0.00,CLR,CLR,0.00,WeatherDisplay:10.37,2013-06-28 14:22:00,
2013-06-28 09:27:00,80.4,64.8,29.94,North,5,1.2,1.2,59,0.00,CLR,CLR,0.00,WeatherDisplay:10.37,2013-06-28 14:27:00,
2013-06-28 09:32:00,80.6,64.0,29.94,North,5,1.2,1.2,57,0.00,CLR,CLR,0.00,WeatherDisplay:10.37,2013-06-28 14:32:00,
2013-06-28 09:37:00,80.9,63.7,29.94,North,11,1.2,1.2,56,0.00,CLR,CLR,0.00,WeatherDisplay:10.37,2013-06-28 14:37:00,
2013-06-28 09:42:00,81.0,62.8,29.94,NNW,339,2.3,2.3,54,0.00,CLR,CLR,0.00,WeatherDisplay:10.37,2013-06-28 14:42:00,
2013-06-28 09:47:00,81.0,63.3,29.94,NNE,15,2.3,2.3,55,0.00,CLR,CLR,0.00,WeatherDisplay:10.37,2013-06-28 14:47:00,
2013-06-28 09:52:00,81.1,63.4,29.94,NNE,16,1.2,1.2,55,0.00,CLR,CLR,0.00,WeatherDisplay:10.37,2013-06-28 14:52:00,
2013-06-28 09:57:00,81.3,64.1,29.94,NW,308,2.3,2.3,56,0.00,CLR,CLR,0.00,WeatherDisplay:10.37,2013-06-28 14:57:00,
2013-06-28 10:02:00,81.2,63.0,29.93,NNE,17,2.3,2.3,54,0.00,CLR,CLR,0.00,WeatherDisplay:10.37,2013-06-28 15:02:00,
2013-06-28 10:07:00,81.5,63.8,29.93,North,11,1.2,1.2,55,0.00,CLR,CLR,0.00,WeatherDisplay:10.37,2013-06-28 15:07:00,
2013-06-28 10:08:00,81.6,64.4,29.93,North,11,2.3,2.3,56,0.00,CLR,CLR,0.00,WeatherDisplay:10.37,2013-06-28 15:08:00,
2013-06-28 10:13:00,81.9,63.6,29.93,NNE,13,1.2,1.2,54,0.00,CLR,CLR,0.00,WeatherDisplay:10.37,2013-06-28 15:13:00,
2013-06-28 10:18:00,82.2,64.9,29.93,North,5,2.3,2.3,56,0.00,CLR,CLR,0.00,WeatherDisplay:10.37,2013-06-28 15:18:00,
2013-06-28 10:23:00,82.5,62.0,29.93,NE,38,4.0,4.0,50,0.00,CLR,CLR,0.00,WeatherDisplay:10.37,2013-06-28 15:23:00,
2013-06-28 10:28:00,82.3,62.4,29.94,NNE,17,8.1,8.1,51,0.00,CLR,CLR,0.00,WeatherDisplay:10.37,2013-06-28 15:28:00,
2013-06-28 10:33:00,82.3,62.9,29.93,North,5,2.3,2.3,52,0.00,CLR,CLR,0.00,WeatherDisplay:10.37,2013-06-28 15:33:00,
2013-06-28 10:38:00,82.6,63.2,29.93,NNE,18,1.2,1.2,52,0.00,CLR,CLR,0.00,WeatherDisplay:10.37,2013-06-28 15:38:00,
2013-06-28 10:43:00,82.9,64.0,29.93,North,5,2.3,2.3,53,0.00,CLR,CLR,0.00,WeatherDisplay:10.37,2013-06-28 15:43:00,
2013-06-28 10:48:00,83.2,62.6,29.93,North,360,3.5,3.5,50,0.00,CLR,CLR,0.00,WeatherDisplay:10.37,2013-06-28 15:48:00,
2013-06-28 10:53:00,83.3,62.1,29.93,NNE,19,2.3,2.3,49,0.00,CLR,CLR,0.00,WeatherDisplay:10.37,2013-06-28 15:53:00,
2013-06-28 10:58:00,83.5,62.9,29.93,North,5,2.3,2.3,50,0.00,CLR,CLR,0.00,WeatherDisplay:10.37,2013-06-28 15:58:00,
2013-06-28 11:03:00,83.9,63.3,29.93,North,355,4.0,4.0,50,0.00,CLR,CLR,0.00,WeatherDisplay:10.37,2013-06-28 16:03:00,
2013-06-28 11:08:00,84.1,62.3,29.93,NNW,332,4.6,4.6,48,0.00,CLR,CLR,0.00,WeatherDisplay:10.37,2013-06-28 16:08:00,
2013-06-28 11:13:00,84.1,60.5,29.93,North,355,6.0,6.0,45,0.00,CLR,CLR,0.00,WeatherDisplay:10.37,2013-06-28 16:13:00,
2013-06-28 11:18:00,84.2,61.8,29.93,NNE,20,3.5,3.5,47,0.00,CLR,CLR,0.00,WeatherDisplay:10.37,2013-06-28 16:18:00,
2013-06-28 11:23:00,84.3,61.3,29.93,NNE,17,3.5,3.5,46,0.00,CLR,CLR,0.00,WeatherDisplay:10.37,2013-06-28 16:23:00,
2013-06-28 11:28:00,84.6,62.1,29.93,NE,45,3.0,3.0,47,0.00,CLR,CLR,0.00,WeatherDisplay:10.37,2013-06-28 16:28:00,
2013-06-28 11:33:00,84.6,61.5,29.93,NNE,12,4.0,4.0,46,0.00,CLR,CLR,0.00,WeatherDisplay:10.37,2013-06-28 16:33:00,
2013-06-28 11:38:00,84.5,61.4,29.93,NNE,15,3.5,3.5,46,0.00,CLR,CLR,0.00,WeatherDisplay:10.37,2013-06-28 16:38:00,
2013-06-28 11:43:00,84.7,60.4,29.93,NNW,333,3.5,3.5,44,0.00,CLR,CLR,0.00,WeatherDisplay:10.37,2013-06-28 16:43:00,
2013-06-28 11:48:00,84.5,60.2,29.93,North,11,4.6,4.6,44,0.00,CLR,CLR,0.00,WeatherDisplay:10.37,2013-06-28 16:48:00,
2013-06-28 11:53:00,84.7,59.7,29.93,North,355,3.5,3.5,43,0.00,CLR,CLR,0.00,WeatherDisplay:10.37,2013-06-28 16:53:00,
2013-06-28 11:58:00,84.9,59.2,29.93,ENE,67,6.0,6.0,42,0.00,CLR,CLR,0.00,WeatherDisplay:10.37,2013-06-28 16:58:00,
2013-06-28 12:03:00,84.9,59.2,29.93,WNW,288,5.0,5.0,42,0.00,CLR,CLR,0.00,WeatherDisplay:10.37,2013-06-28 17:03:00,
2013-06-28 12:08:00,84.9,61.2,29.93,NNW,339,3.5,3.5,45,0.00,CLR,CLR,0.00,WeatherDisplay:10.37,2013-06-28 17:08:00,
2013-06-28 12:13:00,85.1,60.1,29.93,North,350,5.0,5.0,43,0.00,CLR,CLR,0.00,WeatherDisplay:10.37,2013-06-28 17:13:00,
2013-06-28 12:18:00,85.4,60.4,29.93,North,350,4.0,4.0,43,0.00,CLR,CLR,0.00,WeatherDisplay:10.37,2013-06-28 17:18:00,
2013-06-28 12:23:00,85.7,60.0,29.93,NNW,338,6.0,6.0,42,0.00,CLR,CLR,0.00,WeatherDisplay:10.37,2013-06-28 17:23:00,
2013-06-28 12:28:00,85.8,60.7,29.92,NNE,17,5.0,5.0,43,0.00,CLR,CLR,0.00,WeatherDisplay:10.37,2013-06-28 17:28:00,
2013-06-28 12:33:00,85.8,59.4,29.93,NNW,329,6.0,6.0,41,0.00,CLR,CLR,0.00,WeatherDisplay:10.37,2013-06-28 17:33:00,
2013-06-28 12:39:00,85.8,60.1,29.93,NNW,336,4.6,4.6,42,0.00,CLR,CLR,0.00,WeatherDisplay:10.37,2013-06-28 17:39:00,
2013-06-28 12:44:00,85.9,60.1,29.92,NW,306,4.0,4.0,42,0.00,CLR,CLR,0.00,WeatherDisplay:10.37,2013-06-28 17:44:00,
2013-06-28 12:49:00,85.8,58.0,29.92,NW,317,6.0,6.0,39,0.00,CLR,CLR,0.00,WeatherDisplay:10.37,2013-06-28 17:49:00,
2013-06-28 12:54:00,85.6,58.5,29.92,NNW,346,7.0,7.0,40,0.00,CLR,CLR,0.00,WeatherDisplay:10.37,2013-06-28 17:54:00,
2013-06-28 12:59:00,85.7,59.3,29.92,NE,46,7.0,7.0,41,0.00,CLR,CLR,0.00,WeatherDisplay:10.37,2013-06-28 17:59:00,
2013-06-28 13:04:00,85.9,58.8,29.92,NE,41,9.0,9.0,40,0.00,CLR,CLR,0.00,WeatherDisplay:10.37,2013-06-28 18:04:00,
2013-06-28 13:09:00,85.8,58.7,29.92,NNE,14,5.8,5.8,40,0.00,CLR,CLR,0.00,WeatherDisplay:10.37,2013-06-28 18:09:00,
2013-06-28 13:14:00,85.7,57.9,29.92,NW,325,6.0,6.0,39,0.00,CLR,CLR,0.00,WeatherDisplay:10.37,2013-06-28 18:14:00,
2013-06-28 13:19:00,85.6,57.8,29.92,West,269,4.0,4.0,39,0.00,CLR,CLR,0.00,WeatherDisplay:10.37,2013-06-28 18:19:00,
2013-06-28 13:24:00,85.4,57.6,29.92,North,355,5.0,5.0,39,0.00,CLR,CLR,0.00,WeatherDisplay:10.37,2013-06-28 18:24:00,
2013-06-28 13:29:00,85.4,57.6,29.92,WNW,290,8.0,8.0,39,0.00,CLR,CLR,0.00,WeatherDisplay:10.37,2013-06-28 18:29:00,
2013-06-28 13:34:00,85.4,57.6,29.91,WNW,302,5.8,5.8,39,0.00,CLR,CLR,0.00,WeatherDisplay:10.37,2013-06-28 18:34:00,
2013-06-28 13:39:00,85.7,59.3,29.91,NNE,19,7.0,7.0,41,0.00,CLR,CLR,0.00,WeatherDisplay:10.37,2013-06-28 18:39:00,
2013-06-28 13:44:00,86.0,58.2,29.91,NW,315,4.0,4.0,39,0.00,CLR,CLR,0.00,WeatherDisplay:10.37,2013-06-28 18:44:00,
2013-06-28 13:49:00,85.8,57.3,29.91,NNW,335,8.1,8.1,38,0.00,CLR,CLR,0.00,WeatherDisplay:10.37,2013-06-28 18:49:00,
2013-06-28 13:54:00,86.0,57.4,29.91,NNW,342,5.0,5.0,38,0.00,CLR,CLR,0.00,WeatherDisplay:10.37,2013-06-28 18:54:00,
2013-06-28 13:59:00,86.0,56.7,29.91,NNW,348,8.0,8.0,37,0.00,CLR,CLR,0.00,WeatherDisplay:10.37,2013-06-28 18:59:00,
2013-06-28 14:04:00,86.1,57.5,29.90,NNE,31,4.0,4.0,38,0.00,CLR,CLR,0.00,WeatherDisplay:10.37,2013-06-28 19:04:00,
2013-06-28 14:09:00,86.4,58.5,29.90,NW,323,7.0,7.0,39,0.00,CLR,CLR,0.00,WeatherDisplay:10.37,2013-06-28 19:09:00,
2013-06-28 14:14:00,86.4,57.8,29.90,NNE,17,7.0,7.0,38,0.00,CLR,CLR,0.00,WeatherDisplay:10.37,2013-06-28 19:14:00,
2013-06-28 14:19:00,86.5,57.9,29.90,North,5,2.3,2.3,38,0.00,CLR,CLR,0.00,WeatherDisplay:10.37,2013-06-28 19:19:00,
2013-06-28 14:25:00,86.6,58.7,29.90,NNW,346,2.0,6.0,39,0.00,CLR,CLR,0.00,WeatherDisplay:10.37,2013-06-28 19:25:00,
2013-06-28 14:30:00,86.5,56.4,29.90,NNW,339,3.0,9.0,36,0.00,CLR,CLR,0.00,WeatherDisplay:10.37,2013-06-28 19:30:00,
2013-06-28 14:35:00,86.4,58.5,29.89,NNW,337,1.0,4.0,39,0.00,CLR,CLR,0.00,WeatherDisplay:10.37,2013-06-28 19:35:00,
2013-06-28 14:40:00,86.5,57.1,29.89,NNW,346,2.0,6.0,37,0.00,CLR,CLR,0.00,WeatherDisplay:10.37,2013-06-28 19:40:00,
2013-06-28 14:45:00,86.5,57.9,29.89,North,354,1.0,4.0,38,0.00,CLR,CLR,0.00,WeatherDisplay:10.37,2013-06-28 19:45:00,
2013-06-28 14:50:00,86.8,56.7,29.89,NNW,338,3.0,12.0,36,0.00,CLR,CLR,0.00,WeatherDisplay:10.37,2013-06-28 19:50:00,
2013-06-28 14:55:00,87.0,57.6,29.89,NNW,334,3.5,3.5,37,0.00,CLR,CLR,0.00,WeatherDisplay:10.37,2013-06-28 19:55:00,
2013-06-28 15:00:00,86.8,55.9,29.89,NW,322,4.0,4.0,35,0.00,CLR,CLR,0.00,WeatherDisplay:10.37,2013-06-28 20:00:00,
2013-06-28 15:05:00,86.6,54.9,29.89,North,355,9.2,9.2,34,0.00,CLR,CLR,0.00,WeatherDisplay:10.37,2013-06-28 20:05:00,
2013-06-28 15:10:00,86.5,55.6,29.89,North,9,5.8,5.8,35,0.00,CLR,CLR,0.00,WeatherDisplay:10.37,2013-06-28 20:10:00,
2013-06-28 15:15:00,86.3,54.6,29.89,NW,314,10.0,10.0,34,0.00,CLR,CLR,0.00,WeatherDisplay:10.37,2013-06-28 20:15:00,
2013-06-28 15:20:00,86.1,56.8,29.89,North,350,4.0,4.0,37,0.00,CLR,CLR,0.00,WeatherDisplay:10.37,2013-06-28 20:20:00,
2013-06-28 15:25:00,86.4,57.0,29.89,NNE,19,8.0,8.0,37,0.00,CLR,CLR,0.00,WeatherDisplay:10.37,2013-06-28 20:25:00,
2013-06-28 15:30:00,86.6,57.2,29.88,WNW,290,4.0,4.0,37,0.00,CLR,CLR,0.00,WeatherDisplay:10.37,2013-06-28 20:30:00,
2013-06-28 15:35:00,86.6,57.2,29.88,West,275,3.5,3.5,37,0.00,CLR,CLR,0.00,WeatherDisplay:10.37,2013-06-28 20:35:00,
2013-06-28 15:40:00,86.6,58.0,29.88,North,5,3.5,3.5,38,0.00,CLR,CLR,0.00,WeatherDisplay:10.37,2013-06-28 20:40:00,
2013-06-28 15:45:00,86.7,57.3,29.88,WNW,301,5.0,5.0,37,0.00,CLR,CLR,0.00,WeatherDisplay:10.37,2013-06-28 20:45:00,
2013-06-28 15:51:00,86.7,55.8,29.88,NNW,334,8.1,8.1,35,0.00,CLR,CLR,0.00,WeatherDisplay:10.37,2013-06-28 20:51:00,
2013-06-28 15:56:00,86.7,55.0,29.88,NW,325,6.9,6.9,34,0.00,CLR,CLR,0.00,WeatherDisplay:10.37,2013-06-28 20:56:00,
2013-06-28 16:01:00,86.7,57.3,29.88,NNW,339,3.5,3.5,37,0.00,CLR,CLR,0.00,WeatherDisplay:10.37,2013-06-28 21:01:00,
2013-06-28 16:06:00,86.8,57.4,29.88,NNE,30,3.5,3.5,37,0.00,CLR,CLR,0.00,WeatherDisplay:10.37,2013-06-28 21:06:00,
2013-06-28 16:11:00,87.0,57.6,29.88,NNW,329,2.3,2.3,37,0.00,CLR,CLR,0.00,WeatherDisplay:10.37,2013-06-28 21:11:00,
2013-06-28 16:16:00,87.0,56.8,29.88,North,10,9.2,9.2,36,0.00,CLR,CLR,0.00,WeatherDisplay:10.37,2013-06-28 21:16:00,
2013-06-28 16:21:00,86.9,56.0,29.88,NNW,327,4.6,4.6,35,0.00,CLR,CLR,0.00,WeatherDisplay:10.37,2013-06-28 21:21:00,
2013-06-28 16:26:00,86.8,56.6,29.88,North,360,5.8,5.8,36,0.00,CLR,CLR,0.00,WeatherDisplay:10.37,2013-06-28 21:26:00,
2013-06-28 16:31:00,86.5,57.1,29.87,NNE,31,3.5,3.5,37,0.00,CLR,CLR,0.00,WeatherDisplay:10.37,2013-06-28 21:31:00,
2013-06-28 16:36:00,86.4,56.3,29.88,WNW,291,4.0,4.0,36,0.00,CLR,CLR,0.00,WeatherDisplay:10.37,2013-06-28 21:36:00,
2013-06-28 16:41:00,86.0,56.7,29.87,NNW,346,4.6,4.6,37,0.00,CLR,CLR,0.00,WeatherDisplay:10.37,2013-06-28 21:41:00,
2013-06-28 16:46:00,85.8,55.8,29.87,NNW,346,9.2,9.2,36,0.00,CLR,CLR,0.00,WeatherDisplay:10.37,2013-06-28 21:46:00,
2013-06-28 16:51:00,85.6,56.3,29.87,North,360,6.0,6.0,37,0.00,CLR,CLR,0.00,WeatherDisplay:10.37,2013-06-28 21:51:00,
2013-06-28 16:56:00,85.6,56.3,29.87,NNW,340,9.2,9.2,37,0.00,CLR,CLR,0.00,WeatherDisplay:10.37,2013-06-28 21:56:00,
2013-06-28 17:01:00,85.6,57.8,29.87,NW,324,3.5,3.5,39,0.00,CLR,CLR,0.00,WeatherDisplay:10.37,2013-06-28 22:01:00,
2013-06-28 17:06:00,85.6,54.8,29.87,North,5,6.0,6.0,35,0.00,CLR,CLR,0.00,WeatherDisplay:10.37,2013-06-28 22:06:00,
2013-06-28 17:11:00,85.5,57.7,29.87,North,11,5.0,5.0,39,0.00,CLR,CLR,0.00,WeatherDisplay:10.37,2013-06-28 22:11:00,
2013-06-28 17:16:00,85.5,56.3,29.87,NE,40,5.0,5.0,37,0.00,CLR,CLR,0.00,WeatherDisplay:10.37,2013-06-28 22:16:00,
2013-06-28 17:21:00,85.4,55.4,29.87,WNW,288,9.2,9.2,36,0.00,CLR,CLR,0.00,WeatherDisplay:10.37,2013-06-28 22:21:00,
2013-06-28 17:26:00,85.3,55.3,29.87,NNE,30,6.0,6.0,36,0.00,CLR,CLR,0.00,WeatherDisplay:10.37,2013-06-28 22:26:00,
2013-06-28 17:31:00,85.2,54.5,29.87,NNW,335,8.1,8.1,35,0.00,CLR,CLR,0.00,WeatherDisplay:10.37,2013-06-28 22:31:00,
2013-06-28 17:36:00,85.2,55.2,29.86,WNW,286,3.5,3.5,36,0.00,CLR,CLR,0.00,WeatherDisplay:10.37,2013-06-28 22:36:00,